Time;durP1;ratioP1;P1;durP2;ratioP2;P2;SDS_P1;SDS_P2;PMS_P1;PMS_P2;Temp;Humidity;BMP_temperature;BMP_pressure;BME280_temperature;BME280_humidity;BME280_pressure;Samples;Min_cycle;Max_cycle;Signal;HPM_P1;HPM_P2
2023/06/01 00:01:54;;;;;;;8.00;7.20;;;;;;;19.62;83.98;99550.09;5031789;28;20632;-67
2023/06/01 00:04:21;;;;;;;8.63;7.83;;;;;;;19.60;84.56;99552.25;5031939;28;20665;-67
2023/06/01 00:06:48;;;;;;;7.80;7.10;;;;;;;19.57;84.10;99552.75;5032175;28;20272;-67
2023/06/01 00:09:16;;;;;;;7.67;7.07;;;;;;;19.51;84.80;99553.75;5050265;28;20627;-67
2023/06/01 00:11:43;;;;;;;9.10;8.17;;;;;;;19.46;84.56;99548.28;5052487;28;20294;-66
2023/06/01 00:14:10;;;;;;;10.43;7.50;;;;;;;19.42;84.86;99555.25;5051961;28;20253;-66
2023/06/01 00:16:37;;;;;;;10.40;7.90;;;;;;;19.34;85.11;99563.78;5041331;28;20197;-66
2023/06/01 00:19:03;;;;;;;8.73;7.87;;;;;;;19.29;85.55;99555.63;5032246;28;20253;-66
2023/06/01 00:21:32;;;;;;;8.97;8.07;;;;;;;19.21;85.99;99553.34;5031857;28;20193;-66
2023/06/01 00:23:59;;;;;;;8.57;7.70;;;;;;;19.20;86.18;99551.72;5032605;28;20193;-66
2023/06/01 00:26:29;;;;;;;8.63;7.93;;;;;;;19.11;86.62;99548.63;5040284;28;20585;-66
2023/06/01 00:28:56;;;;;;;8.40;7.60;;;;;;;19.09;86.99;99548.09;5052265;28;20221;-66
2023/06/01 00:31:23;;;;;;;9.07;8.37;;;;;;;19.12;87.02;99557.53;5051712;28;20189;-66
2023/06/01 00:33:50;;;;;;;10.97;8.43;;;;;;;19.09;86.93;99555.34;5052048;28;20195;-67
2023/06/01 00:36:17;;;;;;;9.10;7.60;;;;;;;19.03;86.92;99553.66;5043624;28;20722;-67
2023/06/01 00:38:44;;;;;;;9.13;7.80;;;;;;;18.85;87.44;99545.84;5031812;28;20197;-67
2023/06/01 00:41:10;;;;;;;8.90;8.20;;;;;;;18.70;88.75;99556.41;5031559;28;20799;-66
2023/06/01 00:43:39;;;;;;;9.97;8.67;;;;;;;18.76;89.75;99550.03;5032097;28;20181;-67
2023/06/01 00:46:06;;;;;;;9.17;8.27;;;;;;;18.72;89.24;99557.78;5036911;28;20800;-69
2023/06/01 00:48:33;;;;;;;10.60;7.57;;;;;;;18.76;89.61;99552.72;5051967;28;20192;-66
2023/06/01 00:50:59;;;;;;;8.13;7.47;;;;;;;18.90;89.08;99557.50;5055647;28;20194;-67
2023/06/01 00:53:26;;;;;;;11.03;8.10;;;;;;;18.95;88.08;99557.56;5055914;28;20250;-66
2023/06/01 00:55:53;;;;;;;8.50;7.93;;;;;;;18.90;88.16;99562.88;5042087;28;20192;-66
2023/06/01 00:58:20;;;;;;;7.33;6.83;;;;;;;18.98;88.16;99554.38;5043480;28;20343;-66
2023/06/01 01:00:48;;;;;;;8.37;7.70;;;;;;;18.98;86.94;99558.94;5055441;28;20261;-66
2023/06/01 01:03:16;;;;;;;7.70;7.10;;;;;;;19.02;87.37;99560.91;5055724;28;20227;-66
2023/06/01 01:05:42;;;;;;;9.17;8.17;;;;;;;18.84;86.89;99568.44;5039349;28;20257;-66
2023/06/01 01:08:16;;;;;;;8.33;7.60;;;;;;;18.82;87.33;99559.78;5035379;28;20667;-66
2023/06/01 01:10:51;;;;;;;8.03;7.33;;;;;;;18.71;87.20;99566.13;5035545;28;20189;-66
2023/06/01 01:13:23;;;;;;;8.23;7.43;;;;;;;18.69;88.13;99574.44;5035311;28;20571;-66
2023/06/01 01:15:58;;;;;;;7.97;7.47;;;;;;;18.64;88.33;99570.84;5051265;28;20252;-66
2023/06/01 01:18:32;;;;;;;8.10;7.60;;;;;;;18.66;88.59;99563.34;5055628;28;20570;-66
2023/06/01 01:21:02;;;;;;;9.40;7.73;;;;;;;18.64;88.52;99560.06;5055802;28;20220;-67
2023/06/01 01:23:45;;;;;;;8.30;7.40;;;;;;;18.72;88.27;99570.44;5044469;28;20270;-67
2023/06/01 01:26:25;;;;;;;9.40;7.53;;;;;;;18.64;88.42;99562.75;5035477;28;20185;-66
2023/06/01 01:28:59;;;;;;;7.87;7.33;;;;;;;18.68;88.28;99570.13;5035133;28;20568;-67
2023/06/01 01:31:27;;;;;;;8.30;7.50;;;;;;;18.67;89.01;99565.78;5035473;28;20196;-66
2023/06/01 01:33:56;;;;;;;8.43;7.70;;;;;;;18.63;88.73;99569.22;5048292;28;20247;-66
2023/06/01 01:36:24;;;;;;;7.23;6.73;;;;;;;18.67;88.88;99564.97;5055107;28;20235;-66
2023/06/01 01:38:50;;;;;;;7.63;6.93;;;;;;;18.67;88.07;99562.28;5055107;28;20194;-66
2023/06/01 01:41:17;;;;;;;7.67;7.07;;;;;;;18.62;88.96;99564.91;5055090;28;20217;-65
2023/06/01 01:43:45;;;;;;;7.73;7.27;;;;;;;18.59;88.62;99565.38;5042428;28;20196;-65
2023/06/01 01:46:25;;;;;;;7.63;6.80;;;;;;;18.63;89.05;99561.16;5035055;28;20252;-66
2023/06/01 01:48:58;;;;;;;7.93;7.30;;;;;;;18.70;88.14;99565.28;5034835;28;20686;-67
2023/06/01 01:51:30;;;;;;;8.10;7.43;;;;;;;18.74;87.30;99569.13;5035531;28;20257;-65
2023/06/01 01:53:58;;;;;;;8.30;7.70;;;;;;;18.69;87.63;99570.91;5047547;28;20782;-65
2023/06/01 01:56:26;;;;;;;12.47;7.57;;;;;;;18.69;87.98;99571.72;5054946;28;20202;-66
2023/06/01 01:58:55;;;;;;;8.93;7.47;;;;;;;18.63;87.64;99577.28;5054505;28;20658;-66
2023/06/01 02:01:24;;;;;;;8.17;7.17;;;;;;;18.54;87.35;99578.75;5053656;28;20316;-66
2023/06/01 02:04:00;;;;;;;9.47;7.33;;;;;;;18.45;87.64;99582.91;5041460;28;20255;-66
2023/06/01 02:06:26;;;;;;;7.57;6.97;;;;;;;18.38;87.81;99583.06;5034526;28;20187;-65
2023/06/01 02:08:53;;;;;;;8.70;7.70;;;;;;;18.29;88.24;99581.00;5034330;28;20197;-66
2023/06/01 02:11:20;;;;;;;8.50;7.77;;;;;;;18.19;88.60;99580.81;5034675;28;20236;-65
2023/06/01 02:13:47;;;;;;;8.00;7.40;;;;;;;18.07;88.83;99583.59;5044447;28;20737;-67
2023/06/01 02:16:15;;;;;;;8.23;7.47;;;;;;;18.02;88.92;99585.38;5054398;28;20202;-66
2023/06/01 02:18:45;;;;;;;8.77;7.97;;;;;;;17.95;89.57;99590.06;5054395;28;20197;-66
2023/06/01 02:21:12;;;;;;;8.63;7.73;;;;;;;17.90;89.70;99589.97;5054573;28;20270;-65
2023/06/01 02:23:39;;;;;;;8.83;7.93;;;;;;;17.84;89.95;99597.13;5043791;28;20271;-65
2023/06/01 02:26:06;;;;;;;8.37;7.67;;;;;;;17.81;90.50;99583.38;5034375;28;20674;-66
2023/06/01 02:28:33;;;;;;;10.30;7.30;;;;;;;17.82;90.61;99585.00;5034411;28;20196;-66
2023/06/01 02:30:59;;;;;;;8.80;8.13;;;;;;;17.86;92.17;99586.13;5034075;28;20639;-69
2023/06/01 02:33:26;;;;;;;8.17;7.50;;;;;;;17.86;91.19;99580.75;5053780;28;20568;-66
2023/06/01 02:35:54;;;;;;;8.30;7.63;;;;;;;17.88;91.85;99590.22;5054069;28;20258;-66
2023/06/01 02:38:21;;;;;;;8.57;7.87;;;;;;;17.95;92.01;99585.50;5053903;28;20199;-66
2023/06/01 02:40:47;;;;;;;14.30;7.87;;;;;;;18.09;91.60;99588.72;5053997;28;20221;-66
2023/06/01 02:43:14;;;;;;;13.20;7.87;;;;;;;18.21;90.50;99584.09;5033728;28;20194;-66
2023/06/01 02:45:41;;;;;;;9.10;8.17;;;;;;;18.26;89.77;99582.28;5033628;28;20206;-66
2023/06/01 02:48:07;;;;;;;7.90;7.00;;;;;;;18.16;89.87;99586.69;5033684;28;20661;-68
2023/06/01 02:50:34;;;;;;;8.33;6.97;;;;;;;18.09;90.43;99592.22;5034125;28;20263;-66
2023/06/01 02:53:02;;;;;;;7.67;7.07;;;;;;;18.01;89.47;99589.91;5051039;28;20586;-66
2023/06/01 02:55:29;;;;;;;7.77;7.07;;;;;;;17.94;89.49;99599.19;5053734;28;20243;-66
2023/06/01 02:57:56;;;;;;;8.00;7.30;;;;;;;17.90;89.83;99587.28;5053628;28;20279;-66
2023/06/01 03:00:22;;;;;;;7.10;6.70;;;;;;;17.83;90.29;99586.59;5043723;28;20218;-66
2023/06/01 03:02:50;;;;;;;7.47;6.77;;;;;;;17.79;90.61;99585.47;5033588;28;20198;-66
2023/06/01 03:05:16;;;;;;;8.63;7.77;;;;;;;17.75;90.87;99585.13;5033536;28;20251;-66
2023/06/01 03:07:44;;;;;;;7.37;6.30;;;;;;;17.73;91.24;99583.75;5033475;28;20194;-66
2023/06/01 03:10:12;;;;;;;9.50;7.17;;;;;;;17.77;90.71;99587.59;5040140;28;20197;-67
2023/06/01 03:12:39;;;;;;;7.90;7.03;;;;;;;17.75;91.29;99584.31;5052591;28;20205;-67
2023/06/01 03:15:07;;;;;;;8.87;7.50;;;;;;;17.74;90.88;99593.44;5052804;28;20651;-67
2023/06/01 03:17:33;;;;;;;8.50;7.20;;;;;;;17.68;90.78;99591.72;5053022;28;20656;-67
2023/06/01 03:20:02;;;;;;;8.87;6.67;;;;;;;17.66;91.50;99585.75;5046577;28;20574;-67
2023/06/01 03:22:29;;;;;;;7.83;7.23;;;;;;;17.83;92.75;99600.03;5033562;28;20228;-66
2023/06/01 03:24:55;;;;;;;11.10;7.70;;;;;;;18.03;92.42;99592.34;5032854;28;20255;-67
2023/06/01 03:27:23;;;;;;;8.13;7.37;;;;;;;18.26;89.92;99603.00;5033037;28;20197;-66
2023/06/01 03:29:50;;;;;;;8.03;7.27;;;;;;;18.41;88.57;99611.34;5034905;28;20257;-67
2023/06/01 03:32:17;;;;;;;8.73;6.17;;;;;;;18.48;91.86;99595.88;5052729;28;20258;-66
2023/06/01 03:34:44;;;;;;;8.10;7.30;;;;;;;18.89;87.74;99611.59;5052570;28;20200;-66
2023/06/01 03:37:10;;;;;;;11.67;7.10;;;;;;;19.08;87.19;99612.97;5052443;28;20232;-66
2023/06/01 03:39:39;;;;;;;7.90;7.20;;;;;;;19.44;84.00;99623.19;5037741;28;20259;-65
2023/06/01 03:42:06;;;;;;;8.83;6.70;;;;;;;19.56;83.01;99615.81;5033748;28;20249;-67
2023/06/01 03:44:35;;;;;;;7.63;6.27;;;;;;;19.76;85.54;99624.09;5032665;28;20213;-67
2023/06/01 03:47:02;;;;;;;8.40;6.73;;;;;;;20.08;82.72;99630.41;5032979;28;20288;-65
2023/06/01 03:49:29;;;;;;;6.93;6.37;;;;;;;20.44;78.97;99635.09;5033002;28;20223;-65
2023/06/01 03:51:55;;;;;;;7.47;6.40;;;;;;;20.75;79.07;99637.00;5032730;28;20689;-66
2023/06/01 03:54:22;;;;;;;6.83;6.13;;;;;;;20.76;78.75;99633.22;5052237;28;20227;-66
2023/06/01 03:56:49;;;;;;;8.00;6.13;;;;;;;20.96;78.51;99633.41;5052346;28;20204;-66
2023/06/01 03:59:16;;;;;;;9.27;6.70;;;;;;;21.16;76.12;99636.25;5033275;28;20248;-66
2023/06/01 04:01:44;;;;;;;8.00;6.60;;;;;;;21.19;75.26;99638.41;5017416;28;20218;-66
2023/06/01 04:04:12;;;;;;;8.67;6.40;;;;;;;21.44;75.60;99646.66;5031243;28;20285;-66
2023/06/01 04:06:41;;;;;;;11.73;6.50;;;;;;;22.17;71.04;99659.97;5027768;28;20197;-70
2023/06/01 04:09:09;;;;;;;8.90;7.07;;;;;;;23.03;66.74;99658.97;5026831;28;20197;-71
2023/06/01 04:11:36;;;;;;;10.67;6.30;;;;;;;23.85;65.63;99662.03;5026308;28;20203;-69
2023/06/01 04:14:02;;;;;;;7.60;6.07;;;;;;;24.54;62.84;99664.69;5031753;28;20198;-69
2023/06/01 04:16:29;;;;;;;12.07;7.60;;;;;;;25.06;57.82;99677.63;5030438;28;20669;-67
2023/06/01 04:18:57;;;;;;;18.43;6.70;;;;;;;25.44;57.00;99671.28;5024104;28;20200;-67
2023/06/01 04:21:25;;;;;;;13.37;6.73;;;;;;;25.60;55.25;99678.97;5021623;28;20220;-68
2023/06/01 04:23:51;;;;;;;18.17;6.57;;;;;;;26.09;55.55;99681.41;5042691;28;20196;-68
2023/06/01 04:26:18;;;;;;;9.50;6.23;;;;;;;26.31;55.17;99659.84;5046266;28;20195;-67
2023/06/01 04:28:45;;;;;;;16.17;6.27;;;;;;;26.52;54.59;99661.19;5030476;28;20314;-68
2023/06/01 04:31:16;;;;;;;8.00;5.83;;;;;;;26.91;50.76;99664.41;5028769;28;20201;-66
2023/06/01 04:33:44;;;;;;;12.63;6.13;;;;;;;26.90;50.76;99660.06;5040059;28;20258;-67
2023/06/01 04:36:13;;;;;;;11.90;6.27;;;;;;;26.99;50.18;99661.00;5036247;28;20229;-67
2023/06/01 04:38:41;;;;;;;12.77;6.67;;;;;;;27.19;50.00;99668.84;5029518;28;20581;-68
2023/06/01 04:41:10;;;;;;;24.90;8.10;;;;;;;27.33;49.81;99672.41;5030163;28;20239;-67
2023/06/01 04:43:38;;;;;;;12.60;6.40;;;;;;;27.70;50.43;99667.59;5041261;28;20197;-66
2023/06/01 04:46:05;;;;;;;10.93;6.10;;;;;;;28.28;48.96;99667.75;5048255;28;20251;-68
2023/06/01 04:48:32;;;;;;;13.93;6.40;;;;;;;28.45;46.56;99673.41;5050110;28;20203;-67
2023/06/01 04:50:59;;;;;;;17.53;6.80;;;;;;;28.91;47.93;99666.53;5048839;28;20740;-69
2023/06/01 04:53:28;;;;;;;8.23;6.30;;;;;;;28.78;45.89;99672.88;5043340;28;20291;-69
2023/06/01 04:55:56;;;;;;;16.17;6.20;;;;;;;28.91;46.02;99669.25;5049355;28;20258;-69
2023/06/01 04:58:23;;;;;;;9.83;6.57;;;;;;;28.76;46.82;99663.38;5051204;28;20220;-70
2023/06/01 05:00:49;;;;;;;9.50;6.13;;;;;;;28.79;46.34;99663.53;5048703;28;20220;-69
2023/06/01 05:03:16;;;;;;;9.23;6.00;;;;;;;28.94;45.84;99676.84;5030162;28;20274;-69
2023/06/01 05:05:43;;;;;;;18.67;6.60;;;;;;;29.33;46.78;99667.94;5030355;28;20267;-67
2023/06/01 05:08:10;;;;;;;11.67;6.00;;;;;;;30.19;45.63;99669.09;5013565;28;20206;-68
2023/06/01 05:10:39;;;;;;;12.90;6.07;;;;;;;30.84;42.85;99669.78;5011461;28;20249;-68
2023/06/01 05:13:05;;;;;;;7.00;6.13;;;;;;;30.80;41.24;99674.31;5049936;28;20196;-69
2023/06/01 05:15:32;;;;;;;6.57;5.23;;;;;;;30.47;41.44;99676.72;5046292;28;20186;-70
2023/06/01 05:17:59;;;;;;;5.20;4.90;;;;;;;30.09;42.05;99666.63;5030228;28;20247;-70
2023/06/01 05:20:25;;;;;;;12.20;6.03;;;;;;;30.19;42.57;99669.91;5030959;28;20194;-64
2023/06/01 05:22:53;;;;;;;13.30;5.87;;;;;;;30.29;42.26;99675.06;5048366;28;20193;-63
2023/06/01 05:25:19;;;;;;;6.70;5.53;;;;;;;30.31;43.23;99661.88;5038175;28;20194;-66
2023/06/01 05:27:47;;;;;;;9.07;5.93;;;;;;;30.23;43.57;99667.31;5031185;28;20220;-64
2023/06/01 05:30:14;;;;;;;6.77;5.70;;;;;;;30.77;42.75;99670.28;5031289;28;20189;-64
2023/06/01 05:32:41;;;;;;;6.73;6.10;;;;;;;30.97;41.63;99666.88;5044970;28;20254;-63
2023/06/01 05:35:08;;;;;;;6.23;5.63;;;;;;;30.88;40.85;99674.31;5050730;28;20663;-64
2023/06/01 05:37:35;;;;;;;7.87;5.33;;;;;;;30.97;40.79;99669.63;5054071;28;20286;-63
2023/06/01 05:40:04;;;;;;;8.93;6.40;;;;;;;31.13;40.40;99667.97;5054838;28;20250;-62
2023/06/01 05:42:30;;;;;;;12.60;5.17;;;;;;;31.29;40.75;99674.59;5041208;28;20217;-63
2023/06/01 05:44:58;;;;;;;7.17;5.53;;;;;;;31.82;39.17;99669.38;5034812;28;20308;-63
2023/06/01 05:47:25;;;;;;;7.97;5.90;;;;;;;31.53;38.49;99669.34;5034230;28;20694;-68
2023/06/01 05:49:52;;;;;;;5.53;5.10;;;;;;;31.73;38.19;99668.56;5034532;28;20658;-67
2023/06/01 05:52:18;;;;;;;5.60;5.20;;;;;;;31.65;37.75;99669.41;5034779;28;20201;-68
2023/06/01 05:54:45;;;;;;;5.43;5.03;;;;;;;32.12;37.66;99667.41;5034783;28;20193;-67
2023/06/01 05:57:12;;;;;;;11.73;5.53;;;;;;;32.25;37.19;99667.16;5034836;28;20259;-66
2023/06/01 05:59:38;;;;;;;5.73;5.23;;;;;;;31.66;38.15;99665.56;5035923;28;20197;-66
2023/06/01 06:02:07;;;;;;;10.83;5.20;;;;;;;31.52;38.92;99664.94;5054217;28;20762;-66
2023/06/01 06:04:33;;;;;;;8.70;5.47;;;;;;;31.23;39.05;99662.16;5047874;28;20231;-66
2023/06/01 06:07:00;;;;;;;5.40;5.00;;;;;;;31.33;38.93;99678.28;5026056;28;20255;-66
2023/06/01 06:09:27;;;;;;;9.17;5.33;;;;;;;31.23;39.86;99672.34;5014729;28;20189;-67
2023/06/01 06:11:53;;;;;;;6.20;5.77;;;;;;;31.07;39.95;99663.75;5014411;28;20268;-66
2023/06/01 06:14:20;;;;;;;6.13;5.67;;;;;;;31.06;38.70;99667.66;5014413;28;20252;-66
2023/06/01 06:16:47;;;;;;;10.53;5.17;;;;;;;31.00;39.29;99668.16;5014318;28;20248;-67
2023/06/01 06:19:16;;;;;;;5.90;5.50;;;;;;;31.25;39.06;99662.63;5014602;28;20190;-66
2023/06/01 06:21:43;;;;;;;6.03;5.13;;;;;;;31.48;37.98;99661.25;5014156;28;20308;-66
2023/06/01 06:24:10;;;;;;;5.90;4.60;;;;;;;31.59;39.25;99665.25;5014377;28;20194;-66
2023/06/01 06:26:36;;;;;;;5.53;5.23;;;;;;;31.39;37.96;99657.72;5014170;28;20220;-66
2023/06/01 06:29:03;;;;;;;5.70;5.20;;;;;;;31.25;38.36;99668.13;5014101;28;20194;-66
2023/06/01 06:31:30;;;;;;;11.90;5.23;;;;;;;31.08;40.16;99665.41;5014390;28;20198;-66
2023/06/01 06:33:56;;;;;;;8.07;4.87;;;;;;;31.21;39.74;99656.16;5014080;28;20194;-65
2023/06/01 06:36:24;;;;;;;6.47;5.20;;;;;;;31.22;38.94;99663.25;5014280;28;20315;-65
2023/06/01 06:38:51;;;;;;;5.10;4.70;;;;;;;31.08;39.52;99664.59;5014251;28;20253;-66
2023/06/01 06:41:18;;;;;;;9.83;5.63;;;;;;;31.01;39.22;99662.34;5013757;28;20941;-66
2023/06/01 06:43:44;;;;;;;5.50;5.00;;;;;;;31.06;39.57;99662.16;5014245;28;20255;-66
2023/06/01 06:46:11;;;;;;;5.47;5.07;;;;;;;31.22;40.42;99663.25;5014054;28;20202;-65
2023/06/01 06:48:38;;;;;;;5.80;5.27;;;;;;;31.41;38.99;99660.97;5013949;28;20194;-65
2023/06/01 06:51:05;;;;;;;8.33;4.90;;;;;;;31.21;39.82;99661.66;5013863;28;20194;-66
2023/06/01 06:53:33;;;;;;;8.73;5.40;;;;;;;31.06;39.92;99659.41;5014002;28;20193;-66
2023/06/01 06:56:00;;;;;;;5.87;5.47;;;;;;;31.17;39.32;99660.69;5013889;28;20199;-66
2023/06/01 06:58:27;;;;;;;8.60;5.23;;;;;;;30.63;40.44;99658.66;5013670;28;20685;-66
2023/06/01 07:00:54;;;;;;;6.00;4.70;;;;;;;30.87;40.02;99647.97;5013438;28;20205;-66
2023/06/01 07:03:21;;;;;;;11.83;5.33;;;;;;;31.20;39.89;99645.50;5013896;28;20229;-66
2023/06/01 07:05:48;;;;;;;5.53;5.17;;;;;;;31.54;39.00;99656.38;5029889;28;20296;-66
2023/06/01 07:08:15;;;;;;;11.53;5.63;;;;;;;30.83;40.07;99652.50;5015173;28;20201;-66
2023/06/01 07:10:43;;;;;;;13.20;5.17;;;;;;;31.08;40.11;99653.59;5013706;28;20201;-66
2023/06/01 07:13:10;;;;;;;5.33;4.90;;;;;;;31.32;39.41;99638.22;5013358;28;20202;-66
2023/06/01 07:15:36;;;;;;;5.37;4.90;;;;;;;31.41;38.22;99644.50;5013495;28;20206;-66
2023/06/01 07:18:03;;;;;;;5.70;4.97;;;;;;;31.60;37.01;99650.38;5013527;28;20198;-66
2023/06/01 07:20:30;;;;;;;9.43;5.17;;;;;;;31.40;37.46;99640.13;5012930;28;20673;-66
2023/06/01 07:22:56;;;;;;;8.13;4.93;;;;;;;31.47;37.79;99643.16;5013252;28;20230;-66
2023/06/01 07:25:23;;;;;;;5.93;5.10;;;;;;;31.67;37.86;99639.69;5013658;28;20225;-67
2023/06/01 07:27:52;;;;;;;8.67;4.73;;;;;;;31.66;38.09;99638.09;5013061;28;20194;-67
2023/06/01 07:30:19;;;;;;;16.20;6.37;;;;;;;31.39;38.08;99637.72;5013366;28;20190;-66
2023/06/01 07:32:45;;;;;;;5.30;4.87;;;;;;;31.11;38.29;99631.00;5012974;28;20236;-66
2023/06/01 07:35:12;;;;;;;6.77;5.37;;;;;;;31.00;39.56;99633.28;5013368;28;20197;-66
2023/06/01 07:37:39;;;;;;;11.07;5.47;;;;;;;31.20;39.27;99634.53;5012780;28;20233;-66
2023/06/01 07:40:07;;;;;;;12.90;5.30;;;;;;;31.31;40.26;99633.84;5013098;28;20222;-67
2023/06/01 07:42:34;;;;;;;11.50;5.20;;;;;;;31.63;37.50;99633.25;5012997;28;20236;-66
2023/06/01 07:45:03;;;;;;;7.07;4.70;;;;;;;31.63;37.64;99630.50;5012995;28;20194;-66
2023/06/01 07:47:29;;;;;;;6.27;4.83;;;;;;;31.57;38.44;99623.59;5012722;28;20302;-66
2023/06/01 07:49:56;;;;;;;14.27;5.53;;;;;;;31.84;38.94;99617.63;5012782;28;20197;-67
2023/06/01 07:52:23;;;;;;;6.03;5.43;;;;;;;31.75;38.48;99625.09;5012588;28;20202;-66
2023/06/01 07:54:51;;;;;;;9.53;5.27;;;;;;;31.83;38.99;99618.78;5013093;28;20639;-67
2023/06/01 07:57:18;;;;;;;6.23;5.20;;;;;;;31.79;38.41;99615.09;5051650;28;20192;-66
2023/06/01 07:59:45;;;;;;;5.70;5.13;;;;;;;31.65;39.10;99613.69;5051960;28;20574;-66
2023/06/01 08:02:13;;;;;;;7.03;4.80;;;;;;;31.89;38.27;99617.44;5052376;28;20233;-66
2023/06/01 08:04:40;;;;;;;8.03;5.33;;;;;;;32.02;37.59;99608.16;5045586;28;20625;-66
2023/06/01 08:07:08;;;;;;;7.13;5.07;;;;;;;32.28;36.44;99614.25;5022923;28;20194;-67
2023/06/01 08:09:37;;;;;;;7.43;4.73;;;;;;;32.58;36.28;99607.53;5012618;28;20285;-67
2023/06/01 08:12:04;;;;;;;7.33;4.93;;;;;;;32.53;35.01;99612.44;5012526;28;20202;-66
2023/06/01 08:14:33;;;;;;;5.00;4.60;;;;;;;31.98;35.82;99607.22;5012661;28;20201;-66
2023/06/01 08:17:01;;;;;;;7.90;5.50;;;;;;;32.03;36.77;99609.75;5012233;28;20252;-66
2023/06/01 08:19:29;;;;;;;4.93;4.50;;;;;;;32.40;36.69;99606.09;5012730;28;20298;-66
2023/06/01 08:21:55;;;;;;;19.37;6.63;;;;;;;32.52;35.58;99600.66;5012386;28;20225;-66
2023/06/01 08:24:22;;;;;;;9.60;5.10;;;;;;;32.06;36.76;99603.56;5012492;28;20190;-66
2023/06/01 08:26:49;;;;;;;9.67;5.67;;;;;;;32.22;36.78;99601.84;5012042;28;20202;-66
2023/06/01 08:29:16;;;;;;;8.43;5.20;;;;;;;32.37;36.17;99594.94;5012536;28;20256;-66
2023/06/01 08:31:42;;;;;;;6.13;5.50;;;;;;;32.40;36.77;99600.59;5012121;28;20210;-66
2023/06/01 08:34:09;;;;;;;5.50;5.10;;;;;;;32.46;35.90;99593.75;5012433;28;20626;-66
2023/06/01 08:36:37;;;;;;;7.10;5.13;;;;;;;32.68;35.21;99603.56;5012107;28;20767;-66
2023/06/01 08:39:22;;;;;;;7.27;4.97;;;;;;;32.98;34.71;99603.13;5012438;28;20244;-67
2023/06/01 08:42:01;;;;;;;5.90;5.30;;;;;;;33.01;34.51;99602.47;5012234;28;20210;-67
2023/06/01 08:44:28;;;;;;;5.90;5.40;;;;;;;33.08;34.71;99601.88;5012012;28;20248;-66
2023/06/01 08:46:55;;;;;;;7.23;5.30;;;;;;;33.29;34.36;99597.09;5012230;28;20197;-66
2023/06/01 08:49:24;;;;;;;5.45;4.80;;;;;;;33.22;33.55;99591.34;5011639;28;20260;-63
2023/06/01 08:51:57;;;;;;;6.83;5.10;;;;;;;33.22;34.16;99588.59;5011686;28;20213;-66
2023/06/01 08:54:24;;;;;;;5.93;4.78;;;;;;;33.02;34.17;99582.03;5012384;28;20190;-65
2023/06/01 08:56:51;;;;;;;14.27;4.53;;;;;;;33.30;33.32;99587.69;5012133;28;20252;-65
2023/06/01 08:59:18;;;;;;;8.77;4.55;;;;;;;33.46;33.23;99593.34;5012154;28;20209;-64
2023/06/01 09:01:46;;;;;;;6.53;4.32;;;;;;;33.61;32.60;99581.63;5012016;28;20263;-63
2023/06/01 09:04:13;;;;;;;7.80;4.80;;;;;;;33.79;32.09;99571.97;5015211;28;20244;-63
2023/06/01 09:06:42;;;;;;;5.20;4.75;;;;;;;33.86;32.12;99577.72;5029889;28;20197;-63
2023/06/01 09:09:12;;;;;;;6.88;5.18;;;;;;;33.94;31.83;99574.03;5031572;28;20244;-63
2023/06/01 09:11:39;;;;;;;5.28;4.68;;;;;;;33.75;30.91;99576.56;5035575;28;20189;-64
2023/06/01 09:14:21;;;;;;;6.68;3.95;;;;;;;33.88;31.96;99564.41;5035229;28;20201;-63
2023/06/01 09:16:48;;;;;;;4.15;3.60;;;;;;;33.95;32.22;99561.84;5051679;28;20272;-67
2023/06/01 09:19:15;;;;;;;4.93;4.35;;;;;;;34.04;32.59;99557.03;5036440;28;21757;-67
2023/06/01 09:21:57;;;;;;;6.57;4.25;;;;;;;33.86;30.41;99564.75;5036340;28;20205;-68
2023/06/01 09:24:25;;;;;;;5.63;3.25;;;;;;;33.39;29.79;99568.34;5035474;28;20196;-68
2023/06/01 09:26:52;;;;;;;4.85;3.25;;;;;;;32.77;28.95;99563.81;5037304;28;20719;-69
2023/06/01 09:29:19;;;;;;;4.20;3.90;;;;;;;32.80;30.87;99562.34;5050963;28;20575;-68
2023/06/01 09:31:47;;;;;;;5.10;4.55;;;;;;;32.80;32.47;99543.06;5055426;28;20200;-69
2023/06/01 09:34:18;;;;;;;4.23;3.80;;;;;;;32.54;32.01;99548.84;5053132;28;20685;-69
2023/06/01 09:36:45;;;;;;;7.00;4.17;;;;;;;32.49;32.03;99540.00;5034448;28;20227;-68
2023/06/01 09:39:13;;;;;;;4.33;3.90;;;;;;;32.08;32.25;99540.81;5035679;28;20189;-68
2023/06/01 09:41:49;;;;;;;4.07;3.67;;;;;;;32.08;31.88;99529.84;5033406;28;20288;-68
2023/06/01 09:44:24;;;;;;;5.50;3.73;;;;;;;32.16;31.80;99537.19;5032930;28;20255;-68
2023/06/01 09:46:51;;;;;;;4.53;4.13;;;;;;;32.01;32.63;99539.78;5043299;28;20545;-69
2023/06/01 09:49:24;;;;;;;8.20;4.27;;;;;;;32.04;33.10;99533.56;5034716;28;20209;-69
2023/06/01 09:51:51;;;;;;;9.50;3.83;;;;;;;32.13;32.96;99534.34;5033723;28;20229;-69
2023/06/01 09:54:28;;;;;;;4.03;3.83;;;;;;;32.01;30.73;99539.78;5033941;28;20193;-68
2023/06/01 09:56:56;;;;;;;5.90;3.07;;;;;;;31.71;30.02;99525.25;5033312;28;20331;-68
2023/06/01 09:59:24;;;;;;;3.87;3.57;;;;;;;31.72;29.83;99540.59;5033748;28;20190;-68
2023/06/01 10:01:53;;;;;;;4.23;3.20;;;;;;;31.91;30.15;99524.47;5034287;28;20625;-67
2023/06/01 10:04:23;;;;;;;6.93;3.30;;;;;;;32.13;28.86;99540.63;5034373;28;20201;-66
2023/06/01 10:06:52;;;;;;;3.60;3.30;;;;;;;32.15;28.98;99524.59;5027752;28;20228;-66
2023/06/01 10:09:20;;;;;;;3.83;3.40;;;;;;;31.92;29.84;99525.25;5014739;28;20233;-67
2023/06/01 10:11:47;;;;;;;5.67;4.10;;;;;;;31.64;31.58;99524.94;5014739;28;20209;-67
2023/06/01 10:14:16;;;;;;;5.73;3.90;;;;;;;31.83;31.23;99514.34;5014528;28;20201;-67
2023/06/01 10:16:43;;;;;;;3.80;3.60;;;;;;;32.05;30.93;99507.72;5014342;28;20221;-66
2023/06/01 10:19:11;;;;;;;4.13;3.77;;;;;;;32.02;31.70;99509.19;5014535;28;20654;-68
2023/06/01 10:21:39;;;;;;;3.57;3.33;;;;;;;32.12;31.28;99507.97;5014202;28;20256;-68
2023/06/01 10:24:07;;;;;;;4.43;4.13;;;;;;;31.95;31.49;99508.94;5014084;28;20221;-67
2023/06/01 10:26:40;;;;;;;6.00;3.83;;;;;;;32.15;31.42;99512.78;5014127;28;20205;-67
2023/06/01 10:29:08;;;;;;;7.70;3.60;;;;;;;32.11;30.86;99509.94;5014011;28;20549;-67
2023/06/01 10:31:38;;;;;;;3.73;3.43;;;;;;;32.10;30.83;99502.00;5014355;28;20736;-67
2023/06/01 10:34:06;;;;;;;4.63;3.40;;;;;;;31.47;31.36;99500.34;5014119;28;20194;-67
2023/06/01 10:37:10;;;;;;;3.67;3.40;;;;;;;31.49;31.97;99487.09;5013782;28;20725;-67
2023/06/01 10:39:36;;;;;;;3.80;3.50;;;;;;;31.47;30.29;99499.53;5014108;28;20252;-68
2023/06/01 10:42:37;;;;;;;4.33;3.10;;;;;;;31.52;28.50;99494.66;5013789;28;20692;-67
2023/06/01 10:45:05;;;;;;;4.27;3.53;;;;;;;31.61;28.87;99489.91;5013724;28;20277;-67
2023/06/01 10:47:49;;;;;;;4.30;3.10;;;;;;;31.71;29.83;99481.28;5014113;28;20194;-67
2023/06/01 10:50:21;;;;;;;3.90;3.30;;;;;;;31.65;29.79;99476.31;5013374;28;20198;-67
2023/06/01 10:52:48;;;;;;;6.17;3.73;;;;;;;31.77;29.64;99466.22;5013829;28;20197;-67
2023/06/01 10:55:23;;;;;;;3.80;3.47;;;;;;;31.43;29.64;99469.19;5013401;28;20236;-67
2023/06/01 10:57:51;;;;;;;4.20;3.80;;;;;;;31.39;30.01;99457.28;5013491;28;20284;-67
2023/06/01 11:00:22;;;;;;;3.73;3.43;;;;;;;31.51;29.11;99453.78;5013581;28;20248;-67
2023/06/01 11:02:56;;;;;;;6.37;3.70;;;;;;;31.28;28.42;99461.53;5011664;28;20210;-68
2023/06/01 11:05:37;;;;;;;6.60;3.77;;;;;;;30.93;29.32;99449.13;5028673;28;20207;-68
2023/06/01 11:08:04;;;;;;;4.87;3.50;;;;;;;30.43;30.01;99458.31;5029082;28;20251;-67
2023/06/01 11:10:58;;;;;;;4.73;4.10;;;;;;;30.77;30.03;99450.81;5031292;28;20626;-67
2023/06/01 11:13:27;;;;;;;4.70;3.80;;;;;;;30.80;29.81;99450.16;5012196;28;20281;-68
2023/06/01 11:16:31;;;;;;;8.83;3.90;;;;;;;30.50;30.23;99436.69;5009683;28;20281;-71
2023/06/01 11:19:00;;;;;;;5.63;3.50;;;;;;;30.78;31.17;99446.94;5009277;28;20948;-70
2023/06/01 11:21:29;;;;;;;3.40;3.10;;;;;;;30.71;29.32;99440.34;5010864;28;20206;-69
2023/06/01 11:23:57;;;;;;;6.50;3.57;;;;;;;30.79;29.23;99436.75;5026954;28;20227;-70
2023/06/01 11:26:29;;;;;;;3.93;3.50;;;;;;;30.80;29.07;99416.41;5026635;28;20263;-68
2023/06/01 11:29:06;;;;;;;6.37;3.53;;;;;;;30.96;29.25;99414.72;5028250;28;20193;-69
2023/06/01 11:31:37;;;;;;;4.47;3.90;;;;;;;31.03;29.48;99415.81;5047342;28;20195;-68
2023/06/01 11:34:05;;;;;;;4.10;3.70;;;;;;;30.95;29.54;99413.13;5036759;28;20185;-69
2023/06/01 11:36:37;;;;;;;5.90;4.13;;;;;;;30.93;30.16;99405.22;5028868;28;20259;-69
2023/06/01 11:39:07;;;;;;;4.30;3.90;;;;;;;30.99;29.79;99398.38;5029401;28;20239;-69